Time,TemperatureF,DewpointF,PressureIn,WindDirection,WindDirectionDegrees,WindSpeedMPH,WindSpeedGustMPH,Humidity,HourlyPrecipIn,Conditions,Clouds,dailyrainin,SoftwareType,DateUTC
2013-05-06 00:00:00,65.3,54.1,29.83,SW,233,0.0,0.0,67,0.00,SCT,,0.14,WeatherDisplay:10.37,2013-05-06 04:00:00,
2013-05-06 00:01:00,65.3,54.1,29.83,SW,233,0.0,0.0,67,0.00,RA,,0.00,WeatherDisplay:10.37,2013-05-06 04:01:00,
2013-05-06 00:03:00,65.2,54.0,29.83,SW,233,0.0,0.0,67,0.00,RA,,0.00,WeatherDisplay:10.37,2013-05-06 04:03:00,
2013-05-06 00:08:00,65.2,54.0,29.83,SW,233,0.0,0.0,67,0.00,RA,,0.00,WeatherDisplay:10.37,2013-05-06 04:08:00,
2013-05-06 00:13:00,65.0,54.2,29.83,SW,233,0.0,0.0,68,0.00,FEW,,0.00,WeatherDisplay:10.37,2013-05-06 04:13:00,
2013-05-06 00:18:00,65.0,54.2,29.83,SW,233,0.0,0.0,68,0.00,FEW,,0.00,WeatherDisplay:10.37,2013-05-06 04:18:00,
2013-05-06 00:23:00,64.8,54.0,29.83,SW,233,0.0,0.0,68,0.00,FEW,,0.00,WeatherDisplay:10.37,2013-05-06 04:23:00,
2013-05-06 00:28:00,64.7,53.9,29.83,SW,233,0.0,0.0,68,0.00,FEW,,0.00,WeatherDisplay:10.37,2013-05-06 04:28:00,
2013-05-06 00:33:00,64.5,54.1,29.83,SW,233,0.0,0.0,69,0.00,FEW,,0.00,WeatherDisplay:10.37,2013-05-06 04:33:00,
2013-05-06 00:38:00,64.5,54.1,29.83,SW,233,0.0,0.0,69,0.00,FEW,,0.00,WeatherDisplay:10.37,2013-05-06 04:38:00,
2013-05-06 00:43:00,64.3,54.3,29.83,SW,233,0.0,0.0,70,0.00,FEW,,0.00,WeatherDisplay:10.37,2013-05-06 04:43:00,
2013-05-06 00:48:00,64.2,54.2,29.83,SW,233,0.0,0.0,70,0.00,FEW,,0.00,WeatherDisplay:10.37,2013-05-06 04:48:00,
2013-05-06 00:53:00,64.2,54.6,29.83,SW,233,0.0,0.0,71,0.00,FEW,,0.00,WeatherDisplay:10.37,2013-05-06 04:53:00,
2013-05-06 00:58:00,64.0,54.4,29.83,SW,233,0.0,0.0,71,0.00,FEW,,0.00,WeatherDisplay:10.37,2013-05-06 04:58:00,
2013-05-06 01:03:00,64.0,54.8,29.82,SW,233,0.1,2.3,72,0.00,SCT,,0.00,WeatherDisplay:10.37,2013-05-06 05:03:00,
2013-05-06 01:08:00,64.0,55.2,29.82,SW,233,0.0,0.0,73,0.00,SCT,,0.00,WeatherDisplay:10.37,2013-05-06 05:08:00,
2013-05-06 01:13:00,63.9,55.1,29.82,SW,231,1.4,2.3,73,0.00,SCT,,0.00,WeatherDisplay:10.37,2013-05-06 05:13:00,
2013-05-06 01:18:00,63.9,55.4,29.82,SW,231,0.8,2.0,74,0.00,SCT,,0.00,WeatherDisplay:10.37,2013-05-06 05:18:00,
2013-05-06 01:23:00,63.9,55.4,29.82,SW,231,0.0,1.1,74,0.00,SCT,,0.00,WeatherDisplay:10.37,2013-05-06 05:23:00,
2013-05-06 01:28:00,63.9,55.8,29.82,SW,231,0.1,1.1,75,0.00,SCT,,0.00,WeatherDisplay:10.37,2013-05-06 05:28:00,
2013-05-06 01:33:00,63.9,55.8,29.82,SW,231,0.0,0.0,75,0.00,SCT,,0.00,WeatherDisplay:10.37,2013-05-06 05:33:00,
2013-05-06 01:38:00,63.9,55.8,29.81,SW,231,1.0,0.0,75,0.00,SCT,,0.00,WeatherDisplay:10.37,2013-05-06 05:38:00,
2013-05-06 01:43:00,63.7,56.0,29.81,SW,232,0.0,3.5,76,0.00,SCT,,0.00,WeatherDisplay:10.37,2013-05-06 05:43:00,
2013-05-06 01:48:00,63.7,56.0,29.81,SW,231,0.0,0.0,76,0.00,SCT,,0.00,WeatherDisplay:10.37,2013-05-06 05:48:00,
2013-05-06 01:53:00,63.7,56.0,29.81,SW,232,0.1,2.3,76,0.00,SCT,,0.00,WeatherDisplay:10.37,2013-05-06 05:53:00,
2013-05-06 01:58:00,63.5,55.8,29.81,SW,231,0.3,3.5,76,0.00,SCT,,0.00,WeatherDisplay:10.37,2013-05-06 05:58:00,
2013-05-06 02:03:00,63.5,55.8,29.81,SW,232,0.1,0.0,76,0.00,FEW,,0.00,WeatherDisplay:10.37,2013-05-06 06:03:00,
2013-05-06 02:08:00,63.5,55.8,29.80,SW,232,0.2,0.0,76,0.00,FEW,,0.00,WeatherDisplay:10.37,2013-05-06 06:08:00,
2013-05-06 02:13:00,63.4,55.7,29.80,SW,231,0.0,0.0,76,0.00,FEW,,0.00,WeatherDisplay:10.37,2013-05-06 06:13:00,
2013-05-06 02:18:00,63.4,56.1,29.80,SW,231,0.0,0.0,77,0.00,FEW,,0.00,WeatherDisplay:10.37,2013-05-06 06:18:00,
2013-05-06 02:23:00,63.2,55.9,29.80,SW,232,0.0,0.0,77,0.00,FEW,,0.00,WeatherDisplay:10.37,2013-05-06 06:23:00,
2013-05-06 02:28:00,63.2,55.9,29.80,SW,231,0.0,0.0,77,0.00,FEW,,0.00,WeatherDisplay:10.37,2013-05-06 06:28:00,
2013-05-06 02:33:00,63.1,55.8,29.80,SW,232,0.0,0.0,77,0.00,FEW,,0.00,WeatherDisplay:10.37,2013-05-06 06:33:00,
2013-05-06 02:38:00,62.9,55.6,29.80,SW,232,0.0,0.0,77,0.00,FEW,,0.00,WeatherDisplay:10.37,2013-05-06 06:38:00,
2013-05-06 02:43:00,62.9,55.6,29.80,SW,231,0.0,0.0,77,0.00,FEW,,0.00,WeatherDisplay:10.37,2013-05-06 06:43:00,
2013-05-06 02:48:00,62.7,55.4,29.80,SW,232,0.0,0.0,77,0.00,FEW,,0.00,WeatherDisplay:10.37,2013-05-06 06:48:00,
2013-05-06 02:53:00,62.7,55.7,29.80,SW,232,0.0,1.1,78,0.00,FEW,,0.00,WeatherDisplay:10.37,2013-05-06 06:53:00,
2013-05-06 02:58:00,62.6,55.6,29.80,SW,231,0.0,0.0,78,0.00,FEW,,0.00,WeatherDisplay:10.37,2013-05-06 06:58:00,
2013-05-06 03:03:00,62.4,55.4,29.80,SW,232,0.0,0.0,78,0.00,FEW,,0.00,WeatherDisplay:10.37,2013-05-06 07:03:00,
2013-05-06 03:08:00,62.4,55.4,29.80,SW,232,0.0,0.0,78,0.00,FEW,,0.00,WeatherDisplay:10.37,2013-05-06 07:08:00,
2013-05-06 03:13:00,62.3,55.7,29.80,SW,231,0.0,0.0,79,0.00,FEW,,0.00,WeatherDisplay:10.37,2013-05-06 07:13:00,
2013-05-06 03:18:00,62.1,55.5,29.80,SW,232,0.0,0.0,79,0.00,FEW,,0.00,WeatherDisplay:10.37,2013-05-06 07:18:00,
2013-05-06 03:23:00,62.0,55.4,29.80,SW,231,0.0,0.0,79,0.00,FEW,,0.00,WeatherDisplay:10.37,2013-05-06 07:23:00,
2013-05-06 03:28:00,61.8,55.2,29.80,SW,231,0.0,0.0,79,0.00,FEW,,0.00,WeatherDisplay:10.37,2013-05-06 07:28:00,
2013-05-06 03:33:00,61.8,55.6,29.80,SW,231,0.0,0.0,80,0.00,FEW,,0.00,WeatherDisplay:10.37,2013-05-06 07:33:00,
2013-05-06 03:38:00,61.6,55.4,29.80,SW,231,0.0,0.0,80,0.00,FEW,,0.00,WeatherDisplay:10.37,2013-05-06 07:38:00,
2013-05-06 03:43:00,61.5,55.3,29.80,SW,232,0.0,0.0,80,0.00,FEW,,0.00,WeatherDisplay:10.37,2013-05-06 07:43:00,
2013-05-06 03:48:00,61.3,55.1,29.80,SW,232,0.0,0.0,80,0.00,FEW,,0.00,WeatherDisplay:10.37,2013-05-06 07:48:00,
2013-05-06 03:53:00,61.2,55.0,29.81,SW,231,0.0,0.0,80,0.00,FEW,,0.00,WeatherDisplay:10.37,2013-05-06 07:53:00,
2013-05-06 03:58:00,61.0,54.8,29.81,SW,232,0.0,0.0,80,0.00,FEW,,0.00,WeatherDisplay:10.37,2013-05-06 07:58:00,
2013-05-06 04:03:00,61.0,54.8,29.81,SW,231,0.0,0.0,80,0.00,FEW,,0.00,WeatherDisplay:10.37,2013-05-06 08:03:00,
2013-05-06 04:08:00,60.9,55.0,29.81,SW,233,1.0,1.0,81,0.00,FEW,,0.00,WeatherDisplay:10.37,2013-05-06 08:08:00,
2013-05-06 04:13:00,60.7,55.2,29.81,SW,233,0.0,0.0,82,0.00,FEW,,0.00,WeatherDisplay:10.37,2013-05-06 08:13:00,
2013-05-06 04:18:00,60.5,55.0,29.82,SW,233,0.6,3.0,82,0.00,FEW,,0.00,WeatherDisplay:10.37,2013-05-06 08:18:00,
2013-05-06 04:23:00,60.4,54.9,29.82,SW,220,0.1,2.3,82,0.00,FEW,,0.00,WeatherDisplay:10.37,2013-05-06 08:23:00,
2013-05-06 04:28:00,60.2,54.7,29.82,SW,214,0.0,2.3,82,0.00,FEW,,0.00,WeatherDisplay:10.37,2013-05-06 08:28:00,
2013-05-06 04:33:00,60.1,54.6,29.82,SE,131,0.1,3.5,82,0.00,FEW,,0.00,WeatherDisplay:10.37,2013-05-06 08:33:00,
2013-05-06 04:38:00,59.9,54.4,29.82,SW,221,2.9,4.0,82,0.00,FEW,,0.00,WeatherDisplay:10.37,2013-05-06 08:38:00,
2013-05-06 04:43:00,59.8,54.3,29.83,SSW,205,2.0,3.5,82,0.00,FEW,,0.00,WeatherDisplay:10.37,2013-05-06 08:43:00,
2013-05-06 04:48:00,59.6,54.1,29.83,SSW,212,0.0,3.5,82,0.00,FEW,,0.00,WeatherDisplay:10.37,2013-05-06 08:48:00,
2013-05-06 04:53:00,59.5,54.0,29.83,SSW,212,0.2,2.0,82,0.00,FEW,,0.00,WeatherDisplay:10.37,2013-05-06 08:53:00,
2013-05-06 04:58:00,59.3,53.8,29.83,NW,306,0.2,2.3,82,0.00,FEW,,0.00,WeatherDisplay:10.37,2013-05-06 08:58:00,
2013-05-06 05:03:00,59.2,53.7,29.83,NW,308,0.3,3.5,82,0.00,FEW,,0.00,WeatherDisplay:10.37,2013-05-06 09:03:00,
2013-05-06 05:08:00,59.0,53.5,29.84,NW,308,0.0,0.0,82,0.00,FEW,,0.00,WeatherDisplay:10.37,2013-05-06 09:08:00,
2013-05-06 05:13:00,58.9,53.1,29.84,NW,308,0.0,0.0,81,0.00,FEW,,0.00,WeatherDisplay:10.37,2013-05-06 09:13:00,
2013-05-06 05:18:00,58.7,52.9,29.84,North,11,0.0,1.1,81,0.00,FEW,,0.00,WeatherDisplay:10.37,2013-05-06 09:18:00,
2013-05-06 05:23:00,58.6,52.4,29.84,NNE,12,0.6,2.3,80,0.00,FEW,,0.00,WeatherDisplay:10.37,2013-05-06 09:23:00,
2013-05-06 05:28:00,58.0,51.5,29.84,NW,312,1.3,4.6,79,0.00,FEW,,0.00,WeatherDisplay:10.37,2013-05-06 09:28:00,
2013-05-06 05:33:00,57.8,51.3,29.84,NW,324,1.8,2.3,79,0.00,FEW,,0.00,WeatherDisplay:10.37,2013-05-06 09:33:00,
2013-05-06 05:38:00,57.6,50.8,29.84,NW,315,0.0,1.1,78,0.00,FEW,,0.00,WeatherDisplay:10.37,2013-05-06 09:38:00,
2013-05-06 05:43:00,57.5,50.3,29.84,NW,316,0.0,0.0,77,0.00,FEW,,0.00,WeatherDisplay:10.37,2013-05-06 09:43:00,
2013-05-06 05:48:00,57.3,50.1,29.84,NW,315,0.0,0.0,77,0.00,FEW,,0.00,WeatherDisplay:10.37,2013-05-06 09:48:00,
2013-05-06 05:53:00,57.3,49.8,29.84,NW,315,0.0,1.1,76,0.00,FEW,,0.00,WeatherDisplay:10.37,2013-05-06 09:53:00,
2013-05-06 05:58:00,57.2,49.7,29.85,NW,314,0.5,3.5,76,0.00,FEW,,0.00,WeatherDisplay:10.37,2013-05-06 09:58:00,
2013-05-06 06:03:00,57.0,49.5,29.85,NW,316,0.0,0.0,76,0.00,FEW,,0.00,WeatherDisplay:10.37,2013-05-06 10:03:00,
2013-05-06 06:08:00,57.0,49.5,29.85,NW,316,0.0,0.0,76,0.00,FEW,,0.00,WeatherDisplay:10.37,2013-05-06 10:08:00,
2013-05-06 06:13:00,56.9,49.4,29.85,NW,316,0.0,1.1,76,0.00,FEW,,0.00,WeatherDisplay:10.37,2013-05-06 10:13:00,
2013-05-06 06:18:00,56.7,49.2,29.86,NW,317,0.0,1.1,76,0.00,FEW,,0.00,WeatherDisplay:10.37,2013-05-06 10:18:00,
2013-05-06 06:23:00,56.5,48.7,29.86,NW,317,0.1,1.1,75,0.00,FEW,,0.00,WeatherDisplay:10.37,2013-05-06 10:23:00,
2013-05-06 06:28:00,56.3,48.5,29.86,NW,316,0.2,2.0,75,0.00,FEW,,0.00,WeatherDisplay:10.37,2013-05-06 10:28:00,
2013-05-06 06:33:00,56.2,48.0,29.86,NW,316,0.0,0.0,74,0.00,FEW,,0.00,WeatherDisplay:10.37,2013-05-06 10:33:00,
2013-05-06 06:38:00,56.0,47.8,29.87,NW,316,0.0,0.0,74,0.00,FEW,,0.00,WeatherDisplay:10.37,2013-05-06 10:38:00,
2013-05-06 06:43:00,55.9,47.7,29.87,NW,316,0.0,0.0,74,0.00,FEW,,0.00,WeatherDisplay:10.37,2013-05-06 10:43:00,
2013-05-06 06:48:00,55.9,47.7,29.88,NW,317,0.0,0.0,74,0.00,FEW,,0.00,WeatherDisplay:10.37,2013-05-06 10:48:00,
2013-05-06 06:53:00,55.7,47.5,29.88,NW,317,0.0,0.0,74,0.00,FEW,,0.00,WeatherDisplay:10.37,2013-05-06 10:53:00,
2013-05-06 06:58:00,55.7,47.5,29.88,NW,316,0.0,0.0,74,0.00,FEW,,0.00,WeatherDisplay:10.37,2013-05-06 10:58:00,
2013-05-06 07:03:00,55.6,47.8,29.88,NW,316,0.0,0.0,75,0.00,FEW,,0.00,WeatherDisplay:10.37,2013-05-06 11:03:00,
2013-05-06 07:08:00,55.6,47.8,29.88,NW,317,0.0,0.0,75,0.00,FEW,,0.00,WeatherDisplay:10.37,2013-05-06 11:08:00,
2013-05-06 07:13:00,55.4,47.6,29.88,NW,316,0.0,0.0,75,0.00,FEW,,0.00,WeatherDisplay:10.37,2013-05-06 11:13:00,
2013-05-06 07:18:00,55.4,47.6,29.89,SSW,204,0.0,0.0,75,0.00,FEW,,0.00,WeatherDisplay:10.37,2013-05-06 11:18:00,
2013-05-06 07:23:00,55.4,48.0,29.89,SSW,204,0.0,0.0,76,0.00,FEW,,0.00,WeatherDisplay:10.37,2013-05-06 11:23:00,
2013-05-06 07:28:00,55.3,47.9,29.89,SSW,204,0.0,0.0,76,0.00,FEW,,0.00,WeatherDisplay:10.37,2013-05-06 11:28:00,
2013-05-06 07:33:00,55.3,48.2,29.89,South,191,0.0,0.0,77,0.00,FEW,,0.00,WeatherDisplay:10.37,2013-05-06 11:33:00,
2013-05-06 07:38:00,55.3,48.2,29.89,South,191,0.0,0.0,77,0.00,FEW,,0.00,WeatherDisplay:10.37,2013-05-06 11:38:00,
2013-05-06 07:43:00,55.4,48.7,29.90,South,191,0.0,0.0,78,0.00,FEW,,0.00,WeatherDisplay:10.37,2013-05-06 11:43:00,
2013-05-06 07:48:00,55.4,48.7,29.90,South,191,0.0,0.0,78,0.00,FEW,,0.00,WeatherDisplay:10.37,2013-05-06 11:48:00,
2013-05-06 07:53:00,55.4,48.7,29.90,South,191,0.0,0.0,78,0.00,FEW,,0.00,WeatherDisplay:10.37,2013-05-06 11:53:00,
2013-05-06 07:58:00,55.6,48.8,29.90,NE,47,0.0,0.0,78,0.00,FEW,,0.00,WeatherDisplay:10.37,2013-05-06 11:58:00,
2013-05-06 08:03:00,55.7,48.9,29.90,NE,48,0.2,1.1,78,0.00,FEW,,0.00,WeatherDisplay:10.37,2013-05-06 12:03:00,
2013-05-06 08:08:00,55.7,48.9,29.90,NE,47,2.1,3.5,78,0.00,FEW,,0.00,WeatherDisplay:10.37,2013-05-06 12:08:00,
2013-05-06 08:13:00,55.7,48.9,29.90,NE,46,0.3,2.3,78,0.00,FEW,,0.00,WeatherDisplay:10.37,2013-05-06 12:13:00,
2013-05-06 08:18:00,55.9,48.8,29.90,NE,46,0.0,0.0,77,0.00,FEW,,0.00,WeatherDisplay:10.37,2013-05-06 12:18:00,
2013-05-06 08:23:00,56.0,48.9,29.90,NE,47,0.0,0.0,77,0.00,FEW,,0.00,WeatherDisplay:10.37,2013-05-06 12:23:00,
2013-05-06 08:28:00,56.2,48.7,29.91,NNE,30,0.6,3.5,76,0.00,FEW,,0.00,WeatherDisplay:10.37,2013-05-06 12:28:00,
2013-05-06 08:33:00,56.5,48.7,29.91,ENE,57,1.2,3.5,75,0.00,FEW,,0.00,WeatherDisplay:10.37,2013-05-06 12:33:00,
2013-05-06 08:38:00,56.6,48.8,29.91,ENE,57,0.0,0.0,75,0.00,FEW,,0.00,WeatherDisplay:10.37,2013-05-06 12:38:00,
2013-05-06 08:43:00,56.7,48.5,29.91,ENE,66,0.8,2.3,74,0.00,FEW,,0.00,WeatherDisplay:10.37,2013-05-06 12:43:00,
2013-05-06 08:48:00,57.0,48.8,29.90,SE,145,2.9,9.2,74,0.00,FEW,,0.00,WeatherDisplay:10.37,2013-05-06 12:48:00,
2013-05-06 08:53:00,57.2,48.6,29.91,South,191,0.8,5.8,73,0.00,FEW,,0.00,WeatherDisplay:10.37,2013-05-06 12:53:00,
2013-05-06 08:58:00,57.3,48.7,29.90,East,87,0.0,0.0,73,0.00,FEW,,0.00,WeatherDisplay:10.37,2013-05-06 12:58:00,
2013-05-06 09:03:00,57.5,48.5,29.91,East,88,0.0,0.0,72,0.00,CLR,,0.00,WeatherDisplay:10.37,2013-05-06 13:03:00,
2013-05-06 09:08:00,57.6,48.6,29.91,WSW,242,0.5,3.5,72,0.00,CLR,,0.00,WeatherDisplay:10.37,2013-05-06 13:08:00,
2013-05-06 09:13:00,58.0,48.6,29.92,SSW,195,0.1,1.1,71,0.00,CLR,,0.00,WeatherDisplay:10.37,2013-05-06 13:13:00,
2013-05-06 09:18:00,58.1,48.4,29.92,SSW,202,0.0,1.1,70,0.00,CLR,,0.00,WeatherDisplay:10.37,2013-05-06 13:18:00,
2013-05-06 09:23:00,58.3,48.6,29.92,NNE,12,1.1,3.5,70,0.00,CLR,,0.00,WeatherDisplay:10.37,2013-05-06 13:23:00,
2013-05-06 09:28:00,58.6,48.1,29.92,SSW,197,0.0,0.0,68,0.00,CLR,,0.00,WeatherDisplay:10.37,2013-05-06 13:28:00,
2013-05-06 09:33:00,58.7,48.2,29.92,East,86,0.2,1.1,68,0.00,CLR,,0.00,WeatherDisplay:10.37,2013-05-06 13:33:00,
2013-05-06 09:38:00,58.9,48.0,29.92,NNE,25,0.8,5.0,67,0.00,CLR,,0.00,WeatherDisplay:10.37,2013-05-06 13:38:00,
2013-05-06 09:43:00,59.2,48.2,29.92,NNE,25,0.1,1.1,67,0.00,CLR,,0.00,WeatherDisplay:10.37,2013-05-06 13:43:00,
2013-05-06 09:48:00,59.3,47.9,29.92,SSW,200,0.0,1.1,66,0.00,CLR,,0.00,WeatherDisplay:10.37,2013-05-06 13:48:00,
2013-05-06 09:53:00,59.5,47.7,29.92,SW,224,1.7,5.8,65,0.00,CLR,,0.00,WeatherDisplay:10.37,2013-05-06 13:53:00,
2013-05-06 09:58:00,59.9,47.7,29.92,South,180,0.1,3.0,64,0.00,CLR,,0.00,WeatherDisplay:10.37,2013-05-06 13:58:00,
2013-05-06 10:03:00,60.5,48.3,29.92,SSW,197,0.0,1.1,64,0.00,CLR,,0.00,WeatherDisplay:10.37,2013-05-06 14:03:00,
2013-05-06 10:08:00,61.2,47.6,29.92,SW,224,1.9,5.0,61,0.00,CLR,,0.00,WeatherDisplay:10.37,2013-05-06 14:08:00,
2013-05-06 10:13:00,62.0,48.0,29.92,SSW,193,1.5,4.0,60,0.00,CLR,,0.00,WeatherDisplay:10.37,2013-05-06 14:13:00,
2013-05-06 10:18:00,62.1,47.1,29.92,SSW,204,1.2,5.8,58,0.00,CLR,,0.00,WeatherDisplay:10.37,2013-05-06 14:18:00,
2013-05-06 10:23:00,62.7,48.2,29.92,SW,216,0.0,0.0,59,0.00,CLR,,0.00,WeatherDisplay:10.37,2013-05-06 14:23:00,
2013-05-06 10:28:00,63.1,46.2,29.92,NNE,16,1.9,4.6,54,0.00,CLR,,0.00,WeatherDisplay:10.37,2013-05-06 14:28:00,
2013-05-06 10:33:00,63.9,48.4,29.92,SE,145,0.1,1.1,57,0.00,CLR,,0.00,WeatherDisplay:10.37,2013-05-06 14:33:00,
2013-05-06 10:38:00,64.0,47.0,29.92,SSW,206,2.6,5.8,54,0.00,CLR,,0.00,WeatherDisplay:10.37,2013-05-06 14:38:00,
2013-05-06 10:43:00,64.3,45.8,29.92,NNE,28,0.1,1.1,51,0.00,CLR,,0.00,WeatherDisplay:10.37,2013-05-06 14:43:00,
2013-05-06 10:48:00,64.8,46.2,29.92,SE,125,0.1,2.3,51,0.00,CLR,,0.00,WeatherDisplay:10.37,2013-05-06 14:48:00,
2013-05-06 10:53:00,65.0,46.9,29.92,SW,218,0.9,3.5,52,0.00,CLR,,0.00,WeatherDisplay:10.37,2013-05-06 14:53:00,
2013-05-06 10:58:00,65.3,46.2,29.92,North,355,1.6,9.0,50,0.00,CLR,,0.00,WeatherDisplay:10.37,2013-05-06 14:58:00,
2013-05-06 11:03:00,65.3,44.5,29.92,NNE,25,2.8,6.9,47,0.00,FEW,,0.00,WeatherDisplay:10.37,2013-05-06 15:03:00,
2013-05-06 11:08:00,65.5,45.8,29.92,SW,218,4.1,10.4,49,0.00,FEW,,0.00,WeatherDisplay:10.37,2013-05-06 15:08:00,
2013-05-06 11:13:00,65.8,45.6,29.92,SW,231,0.6,3.5,48,0.00,FEW,,0.00,WeatherDisplay:10.37,2013-05-06 15:13:00,
2013-05-06 11:18:00,65.6,44.8,29.92,South,188,1.3,4.0,47,0.00,FEW,,0.00,WeatherDisplay:10.37,2013-05-06 15:18:00,
2013-05-06 11:23:00,66.0,44.6,29.93,South,187,1.5,3.5,46,0.00,FEW,,0.00,WeatherDisplay:10.37,2013-05-06 15:23:00,
2013-05-06 11:28:00,66.3,45.5,29.92,SSW,194,2.7,8.1,47,0.00,FEW,,0.00,WeatherDisplay:10.37,2013-05-06 15:28:00,
2013-05-06 11:33:00,66.4,45.0,29.92,SSE,168,0.4,9.2,46,0.00,FEW,,0.00,WeatherDisplay:10.37,2013-05-06 15:33:00,
2013-05-06 11:38:00,67.1,45.0,29.92,NW,314,1.9,5.8,45,0.00,FEW,,0.00,WeatherDisplay:10.37,2013-05-06 15:38:00,
2013-05-06 11:43:00,67.3,45.8,29.92,North,360,1.0,8.1,46,0.00,FEW,,0.00,WeatherDisplay:10.37,2013-05-06 15:43:00,
2013-05-06 11:48:00,67.1,45.0,29.92,SW,223,2.1,4.6,45,0.00,FEW,,0.00,WeatherDisplay:10.37,2013-05-06 15:48:00,
2013-05-06 11:53:00,66.8,44.2,29.92,ENE,76,0.9,3.5,44,0.00,FEW,,0.00,WeatherDisplay:10.37,2013-05-06 15:53:00,
2013-05-06 11:58:00,67.3,46.4,29.92,North,355,0.6,2.3,47,0.00,FEW,,0.00,WeatherDisplay:10.37,2013-05-06 15:58:00,
2013-05-06 12:03:00,67.6,46.1,29.92,North,360,0.6,2.3,46,0.00,FEW,,0.00,WeatherDisplay:10.37,2013-05-06 16:03:00,
2013-05-06 12:08:00,68.1,45.4,29.91,NW,312,2.1,10.4,44,0.00,FEW,,0.00,WeatherDisplay:10.37,2013-05-06 16:08:00,
2013-05-06 12:13:00,68.1,45.9,29.91,SW,235,1.4,6.9,45,0.00,FEW,,0.00,WeatherDisplay:10.37,2013-05-06 16:13:00,
2013-05-06 12:18:00,68.4,46.2,29.91,ESE,116,1.0,2.3,45,0.00,FEW,,0.00,WeatherDisplay:10.37,2013-05-06 16:18:00,
2013-05-06 12:23:00,68.6,47.6,29.91,SSE,150,0.1,0.0,47,0.00,FEW,,0.00,WeatherDisplay:10.37,2013-05-06 16:23:00,
2013-05-06 12:28:00,68.6,46.4,29.91,NNW,332,2.4,9.2,45,0.00,FEW,,0.00,WeatherDisplay:10.37,2013-05-06 16:28:00,
2013-05-06 12:33:00,68.6,45.8,29.91,SSE,166,0.1,3.5,44,0.00,FEW,,0.00,WeatherDisplay:10.37,2013-05-06 16:33:00,
2013-05-06 12:38:00,69.3,47.0,29.91,SW,217,2.5,5.8,45,0.00,FEW,,0.00,WeatherDisplay:10.37,2013-05-06 16:38:00,
2013-05-06 12:43:00,68.6,45.8,29.91,NNE,25,2.1,4.0,44,0.00,FEW,,0.00,WeatherDisplay:10.37,2013-05-06 16:43:00,
2013-05-06 12:48:00,68.8,46.0,29.91,WSW,244,0.3,4.0,44,0.00,FEW,,0.00,WeatherDisplay:10.37,2013-05-06 16:48:00,
2013-05-06 12:53:00,69.6,48.5,29.90,SE,143,1.1,5.8,47,0.00,FEW,,0.00,WeatherDisplay:10.37,2013-05-06 16:53:00,
2013-05-06 12:58:00,70.6,49.4,29.91,WSW,241,3.7,6.0,47,0.00,FEW,,0.00,WeatherDisplay:10.37,2013-05-06 16:58:00,
2013-05-06 13:03:00,69.4,45.3,29.90,WSW,242,1.2,1.2,42,0.00,FEW,,0.00,WeatherDisplay:10.37,2013-05-06 17:03:00,
2013-05-06 13:08:00,69.6,47.9,29.90,WSW,252,1.1,3.5,46,0.00,FEW,,0.00,WeatherDisplay:10.37,2013-05-06 17:08:00,
2013-05-06 13:13:00,70.1,47.2,29.89,NW,316,0.1,0.0,44,0.00,FEW,,0.00,WeatherDisplay:10.37,2013-05-06 17:13:00,
2013-05-06 13:18:00,70.3,47.3,29.89,West,279,0.2,2.3,44,0.00,FEW,,0.00,WeatherDisplay:10.37,2013-05-06 17:18:00,
2013-05-06 13:23:00,70.9,45.4,29.89,SE,124,1.4,4.6,40,0.00,FEW,,0.00,WeatherDisplay:10.37,2013-05-06 17:23:00,
2013-05-06 13:28:00,69.9,45.1,29.89,NNE,23,0.1,9.2,41,0.00,FEW,,0.00,WeatherDisplay:10.37,2013-05-06 17:28:00,
2013-05-06 13:33:00,70.6,46.4,29.89,North,350,1.9,3.5,42,0.00,FEW,,0.00,WeatherDisplay:10.37,2013-05-06 17:33:00,
2013-05-06 13:38:00,70.4,46.2,29.89,SW,216,1.4,4.6,42,0.00,FEW,,0.00,WeatherDisplay:10.37,2013-05-06 17:38:00,
2013-05-06 13:43:00,70.8,46.6,29.89,SE,141,2.7,5.8,42,0.00,FEW,,0.00,WeatherDisplay:10.37,2013-05-06 17:43:00,
2013-05-06 13:48:00,71.8,48.7,29.89,SW,217,1.1,3.0,44,0.00,FEW,,0.00,WeatherDisplay:10.37,2013-05-06 17:48:00,
2013-05-06 13:53:00,71.5,47.8,29.89,West,278,4.1,8.1,43,0.00,FEW,,0.00,WeatherDisplay:10.37,2013-05-06 17:53:00,
2013-05-06 13:58:00,71.3,48.3,29.89,North,360,0.5,2.3,44,0.00,FEW,,0.00,WeatherDisplay:10.37,2013-05-06 17:58:00,
2013-05-06 14:03:00,70.9,46.7,29.89,SW,214,2.6,3.5,42,0.00,CLR,,0.00,WeatherDisplay:10.37,2013-05-06 18:03:00,
2013-05-06 14:08:00,72.0,47.6,29.89,SW,222,3.9,6.9,42,0.00,CLR,,0.00,WeatherDisplay:10.37,2013-05-06 18:08:00,
2013-05-06 14:13:00,72.3,48.5,29.89,SSW,202,2.3,10.4,43,0.00,CLR,,0.00,WeatherDisplay:10.37,2013-05-06 18:13:00,
2013-05-06 14:19:00,72.3,49.2,29.89,South,185,0.7,6.9,44,0.00,CLR,,0.00,WeatherDisplay:10.37,2013-05-06 18:19:00,
2013-05-06 14:24:00,71.8,46.8,29.89,South,178,1.5,4.6,41,0.00,CLR,,0.00,WeatherDisplay:10.37,2013-05-06 18:24:00,
2013-05-06 14:29:00,71.8,46.8,29.88,SSE,153,3.8,8.1,41,0.00,CLR,,0.00,WeatherDisplay:10.37,2013-05-06 18:29:00,
2013-05-06 14:34:00,71.6,45.3,29.88,NNE,19,1.4,3.5,39,0.00,CLR,,0.00,WeatherDisplay:10.37,2013-05-06 18:34:00,
2013-05-06 14:39:00,72.1,47.7,29.88,South,190,1.2,3.5,42,0.00,CLR,,0.00,WeatherDisplay:10.37,2013-05-06 18:39:00,
2013-05-06 14:44:00,72.1,46.4,29.88,SSE,156,2.6,3.5,40,0.00,CLR,,0.00,WeatherDisplay:10.37,2013-05-06 18:44:00,
2013-05-06 14:49:00,72.0,46.3,29.88,SSW,202,3.6,6.9,40,0.00,CLR,,0.00,WeatherDisplay:10.37,2013-05-06 18:49:00,
2013-05-06 14:54:00,73.0,45.9,29.87,East,90,1.6,11.5,38,0.00,CLR,,0.00,WeatherDisplay:10.37,2013-05-06 18:54:00,
2013-05-06 14:59:00,72.0,45.0,29.87,NW,318,2.8,6.9,38,0.00,CLR,,0.00,WeatherDisplay:10.37,2013-05-06 18:59:00,
2013-05-06 15:04:00,72.5,46.8,29.87,SW,228,2.4,5.0,40,0.00,FEW,,0.00,WeatherDisplay:10.37,2013-05-06 19:04:00,
2013-05-06 15:09:00,72.1,45.1,29.87,North,355,0.1,4.6,38,0.00,FEW,,0.00,WeatherDisplay:10.37,2013-05-06 19:09:00,
2013-05-06 15:14:00,72.0,45.0,29.86,NE,53,2.1,3.5,38,0.00,FEW,,0.00,WeatherDisplay:10.37,2013-05-06 19:14:00,
2013-05-06 15:19:00,72.3,46.6,29.86,NNW,330,0.8,4.6,40,0.00,FEW,,0.00,WeatherDisplay:10.37,2013-05-06 19:19:00,
2013-05-06 15:24:00,73.3,47.5,29.86,WSW,256,3.5,6.9,40,0.00,FEW,,0.00,WeatherDisplay:10.37,2013-05-06 19:24:00,
2013-05-06 15:29:00,72.3,47.3,29.86,SW,218,1.1,3.0,41,0.00,FEW,,0.00,WeatherDisplay:10.37,2013-05-06 19:29:00,
2013-05-06 15:34:00,72.5,46.1,29.86,SW,221,0.0,3.5,39,0.00,FEW,,0.00,WeatherDisplay:10.37,2013-05-06 19:34:00,
2013-05-06 15:39:00,73.5,47.7,29.86,SW,227,2.0,5.8,40,0.00,FEW,,0.00,WeatherDisplay:10.37,2013-05-06 19:39:00,
2013-05-06 15:44:00,73.3,46.8,29.86,SW,229,3.5,11.5,39,0.00,FEW,,0.00,WeatherDisplay:10.37,2013-05-06 19:44:00,
2013-05-06 15:49:00,73.5,47.0,29.86,SSW,202,3.8,4.6,39,0.00,FEW,,0.00,WeatherDisplay:10.37,2013-05-06 19:49:00,
2013-05-06 15:54:00,73.9,48.7,29.85,SW,222,4.1,6.9,41,0.00,FEW,,0.00,WeatherDisplay:10.37,2013-05-06 19:54:00,
2013-05-06 15:59:00,73.2,46.8,29.85,SE,145,3.2,5.8,39,0.00,FEW,,0.00,WeatherDisplay:10.37,2013-05-06 19:59:00,
2013-05-06 16:04:00,73.7,47.9,29.85,SW,214,2.8,4.0,40,0.00,FEW,,0.00,WeatherDisplay:10.37,2013-05-06 20:04:00,
2013-05-06 16:09:00,73.5,47.0,29.85,SSW,213,3.4,8.1,39,0.00,FEW,,0.00,WeatherDisplay:10.37,2013-05-06 20:09:00,
2013-05-06 16:14:00,72.7,47.0,29.85,SW,214,0.5,5.8,40,0.00,FEW,,0.00,WeatherDisplay:10.37,2013-05-06 20:14:00,
2013-05-06 16:19:00,72.5,47.5,29.84,SSW,202,0.3,1.1,41,0.00,FEW,,0.00,WeatherDisplay:10.37,2013-05-06 20:19:00,
2013-05-06 16:24:00,73.0,48.5,29.84,South,191,0.5,4.6,42,0.00,FEW,,0.00,WeatherDisplay:10.37,2013-05-06 20:24:00,
2013-05-06 16:29:00,73.3,47.5,29.84,WSW,256,6.5,9.2,40,0.00,FEW,,0.00,WeatherDisplay:10.37,2013-05-06 20:29:00,
2013-05-06 16:34:00,73.0,46.6,29.84,SSW,204,2.0,3.5,39,0.00,FEW,,0.00,WeatherDisplay:10.37,2013-05-06 20:34:00,
2013-05-06 16:39:00,73.0,47.9,29.84,WSW,239,0.5,7.0,41,0.00,FEW,,0.00,WeatherDisplay:10.37,2013-05-06 20:39:00,
2013-05-06 16:44:00,73.0,47.2,29.84,WSW,258,0.7,3.5,40,0.00,FEW,,0.00,WeatherDisplay:10.37,2013-05-06 20:44:00,
2013-05-06 16:49:00,73.0,46.6,29.84,SSW,201,3.4,11.5,39,0.00,FEW,,0.00,WeatherDisplay:10.37,2013-05-06 20:49:00,
2013-05-06 16:54:00,73.0,47.2,29.83,WSW,237,0.2,5.8,40,0.00,FEW,,0.00,WeatherDisplay:10.37,2013-05-06 20:54:00,
2013-05-06 16:59:00,72.7,47.0,29.83,NNW,332,1.7,3.5,40,0.00,FEW,,0.00,WeatherDisplay:10.37,2013-05-06 20:59:00,
2013-05-06 17:04:00,72.5,46.8,29.83,SE,145,0.9,4.6,40,0.00,FEW,,0.00,WeatherDisplay:10.37,2013-05-06 21:04:00,
2013-05-06 17:09:00,72.7,47.6,29.84,SSE,156,1.1,3.5,41,0.00,FEW,,0.00,WeatherDisplay:10.37,2013-05-06 21:09:00,
2013-05-06 17:14:00,72.7,46.3,29.83,West,267,2.7,3.5,39,0.00,FEW,,0.00,WeatherDisplay:10.37,2013-05-06 21:14:00,
2013-05-06 17:19:00,72.7,46.3,29.83,SW,229,4.7,5.0,39,0.00,FEW,,0.00,WeatherDisplay:10.37,2013-05-06 21:19:00,
2013-05-06 17:24:00,72.8,47.1,29.84,SSW,197,2.9,4.6,40,0.00,FEW,,0.00,WeatherDisplay:10.37,2013-05-06 21:24:00,
2013-05-06 17:29:00,72.5,46.1,29.84,SSW,206,1.9,9.2,39,0.00,FEW,,0.00,WeatherDisplay:10.37,2013-05-06 21:29:00,
2013-05-06 17:34:00,72.1,46.4,29.84,SW,233,0.0,1.1,40,0.00,FEW,,0.00,WeatherDisplay:10.37,2013-05-06 21:34:00,
2013-05-06 17:39:00,72.0,46.3,29.83,NNE,17,2.2,6.9,40,0.00,FEW,,0.00,WeatherDisplay:10.37,2013-05-06 21:39:00,
2013-05-06 17:44:00,72.1,47.1,29.83,ENE,73,1.4,6.9,41,0.00,FEW,,0.00,WeatherDisplay:10.37,2013-05-06 21:44:00,
2013-05-06 17:49:00,72.1,46.4,29.84,SSW,206,0.2,9.2,40,0.00,FEW,,0.00,WeatherDisplay:10.37,2013-05-06 21:49:00,
2013-05-06 17:54:00,72.3,46.6,29.83,NNE,26,2.1,3.5,40,0.00,FEW,,0.00,WeatherDisplay:10.37,2013-05-06 21:54:00,
2013-05-06 17:59:00,72.3,46.6,29.83,SW,217,2.8,5.8,40,0.00,FEW,,0.00,WeatherDisplay:10.37,2013-05-06 21:59:00,
2013-05-06 18:04:00,72.1,47.1,29.84,SE,129,0.7,3.5,41,0.00,SCT,,0.00,WeatherDisplay:10.37,2013-05-06 22:04:00,
2013-05-06 18:09:00,71.8,46.2,29.83,East,92,0.7,0.0,40,0.00,SCT,,0.00,WeatherDisplay:10.37,2013-05-06 22:09:00,
2013-05-06 18:14:00,71.6,47.9,29.83,ESE,121,0.0,0.0,43,0.00,SCT,,0.00,WeatherDisplay:10.37,2013-05-06 22:14:00,
2013-05-06 18:19:00,71.3,47.0,29.83,ESE,121,0.1,0.0,42,0.00,SCT,,0.00,WeatherDisplay:10.37,2013-05-06 22:19:00,
2013-05-06 18:24:00,71.3,47.6,29.83,SW,229,0.0,2.3,43,0.00,SCT,,0.00,WeatherDisplay:10.37,2013-05-06 22:24:00,
2013-05-06 18:29:00,71.3,48.3,29.83,SW,229,0.1,1.1,44,0.00,SCT,,0.00,WeatherDisplay:10.37,2013-05-06 22:29:00,
2013-05-06 18:34:00,71.3,48.3,29.83,SW,232,3.3,3.3,44,0.00,SCT,,0.00,WeatherDisplay:10.37,2013-05-06 22:34:00,
2013-05-06 18:39:00,71.1,46.8,29.83,SW,216,0.5,4.6,42,0.00,SCT,,0.00,WeatherDisplay:10.37,2013-05-06 22:39:00,
2013-05-06 18:44:00,71.1,48.1,29.83,South,190,0.0,0.0,44,0.00,SCT,,0.00,WeatherDisplay:10.37,2013-05-06 22:44:00,
2013-05-06 18:49:00,70.9,47.3,29.83,South,187,0.1,5.8,43,0.00,SCT,,0.00,WeatherDisplay:10.37,2013-05-06 22:49:00,
2013-05-06 18:54:00,70.8,47.8,29.83,South,186,0.0,0.0,44,0.00,SCT,,0.00,WeatherDisplay:10.37,2013-05-06 22:54:00,
2013-05-06 18:59:00,70.6,48.2,29.83,WNW,292,0.6,2.0,45,0.00,SCT,,0.00,WeatherDisplay:10.37,2013-05-06 22:59:00,
2013-05-06 19:04:00,70.3,47.3,29.84,West,260,0.0,0.0,44,0.00,SCT,,0.00,WeatherDisplay:10.37,2013-05-06 23:04:00,
2013-05-06 19:09:00,70.1,47.8,29.84,WSW,258,0.0,0.0,45,0.00,SCT,,0.00,WeatherDisplay:10.37,2013-05-06 23:09:00,
2013-05-06 19:14:00,69.9,47.6,29.84,NW,320,0.0,0.0,45,0.00,SCT,,0.00,WeatherDisplay:10.37,2013-05-06 23:14:00,
2013-05-06 19:19:00,69.6,47.3,29.84,NNW,336,0.5,3.5,45,0.00,SCT,,0.00,WeatherDisplay:10.37,2013-05-06 23:19:00,
2013-05-06 19:24:00,69.4,48.3,29.84,WNW,294,0.0,0.0,47,0.00,SCT,,0.00,WeatherDisplay:10.37,2013-05-06 23:24:00,
2013-05-06 19:29:00,69.3,48.2,29.84,South,185,0.3,2.3,47,0.00,SCT,,0.00,WeatherDisplay:10.37,2013-05-06 23:29:00,
2013-05-06 19:34:00,69.1,47.4,29.84,NNE,14,1.2,5.8,46,0.00,SCT,,0.00,WeatherDisplay:10.37,2013-05-06 23:34:00,
2013-05-06 19:39:00,68.8,47.2,29.85,NNE,19,0.0,0.0,46,0.00,SCT,,0.00,WeatherDisplay:10.37,2013-05-06 23:39:00,
2013-05-06 19:44:00,68.6,47.6,29.85,North,350,0.0,0.0,47,0.00,SCT,,0.00,WeatherDisplay:10.37,2013-05-06 23:44:00,
2013-05-06 19:49:00,68.6,48.1,29.85,NNW,345,0.0,1.1,48,0.00,SCT,,0.00,WeatherDisplay:10.37,2013-05-06 23:49:00,
2013-05-06 19:54:00,68.3,48.4,29.85,NNW,334,0.0,0.0,49,0.00,SCT,,0.00,WeatherDisplay:10.37,2013-05-06 23:54:00,
2013-05-06 19:59:00,68.1,48.2,29.85,NNW,334,0.0,0.0,49,0.00,SCT,,0.00,WeatherDisplay:10.37,2013-05-06 23:59:00,
2013-05-06 20:04:00,67.9,48.6,29.86,SSW,204,0.0,0.0,50,0.00,SCT,,0.00,WeatherDisplay:10.37,2013-05-07 00:04:00,
2013-05-06 20:09:00,67.8,48.5,29.86,South,177,0.0,0.0,50,0.00,SCT,,0.00,WeatherDisplay:10.37,2013-05-07 00:09:00,
2013-05-06 20:14:00,67.6,48.8,29.86,South,177,0.0,0.0,51,0.00,SCT,,0.00,WeatherDisplay:10.37,2013-05-07 00:14:00,
2013-05-06 20:19:00,67.4,48.6,29.86,South,177,0.0,0.0,51,0.00,SCT,,0.00,WeatherDisplay:10.37,2013-05-07 00:19:00,
2013-05-06 20:24:00,67.3,48.5,29.86,South,177,0.0,0.0,51,0.00,SCT,,0.00,WeatherDisplay:10.37,2013-05-07 00:24:00,
2013-05-06 20:29:00,67.1,48.9,29.86,South,177,0.0,0.0,52,0.00,SCT,,0.00,WeatherDisplay:10.37,2013-05-07 00:29:00,
2013-05-06 20:34:00,66.8,49.1,29.87,South,177,0.0,0.0,53,0.00,SCT,,0.00,WeatherDisplay:10.37,2013-05-07 00:34:00,
2013-05-06 20:39:00,66.6,49.4,29.87,South,177,0.0,0.0,54,0.00,SCT,,0.00,WeatherDisplay:10.37,2013-05-07 00:39:00,
2013-05-06 20:44:00,66.4,49.2,29.87,South,177,0.0,0.0,54,0.00,SCT,,0.00,WeatherDisplay:10.37,2013-05-07 00:44:00,
2013-05-06 20:49:00,66.1,49.5,29.87,South,177,0.0,0.0,55,0.00,SCT,,0.00,WeatherDisplay:10.37,2013-05-07 00:49:00,
2013-05-06 20:54:00,66.0,49.4,29.87,South,177,0.0,0.0,55,0.00,SCT,,0.00,WeatherDisplay:10.37,2013-05-07 00:54:00,
2013-05-06 20:59:00,65.8,50.1,29.88,South,177,0.0,0.0,57,0.00,SCT,,0.00,WeatherDisplay:10.37,2013-05-07 00:59:00,
2013-05-06 21:04:00,65.6,50.0,29.88,South,177,0.0,0.0,57,0.00,SCT,,0.00,WeatherDisplay:10.37,2013-05-07 01:04:00,
2013-05-06 21:09:00,65.3,49.7,29.88,South,177,0.0,0.0,57,0.00,SCT,,0.00,WeatherDisplay:10.37,2013-05-07 01:09:00,
2013-05-06 21:14:00,65.2,50.0,29.88,South,177,0.0,0.0,58,0.00,SCT,,0.00,WeatherDisplay:10.37,2013-05-07 01:14:00,
2013-05-06 21:19:00,65.0,50.3,29.88,South,177,0.0,0.0,59,0.00,SCT,,0.00,WeatherDisplay:10.37,2013-05-07 01:19:00,
2013-05-06 21:24:00,65.0,50.8,29.89,South,177,0.0,0.0,60,0.00,SCT,,0.00,WeatherDisplay:10.37,2013-05-07 01:24:00,
2013-05-06 21:29:00,64.8,50.6,29.89,South,177,0.0,0.0,60,0.00,SCT,,0.00,WeatherDisplay:10.37,2013-05-07 01:29:00,
2013-05-06 21:34:00,64.7,50.5,29.89,South,177,0.0,0.0,60,0.00,SCT,,0.00,WeatherDisplay:10.37,2013-05-07 01:34:00,
2013-05-06 21:39:00,64.5,50.7,29.89,South,177,0.0,0.0,61,0.00,SCT,,0.00,WeatherDisplay:10.37,2013-05-07 01:39:00,
2013-05-06 21:44:00,64.5,50.7,29.90,South,177,0.0,0.0,61,0.00,SCT,,0.00,WeatherDisplay:10.37,2013-05-07 01:44:00,
2013-05-06 21:49:00,64.3,51.0,29.90,South,177,0.0,0.0,62,0.00,SCT,,0.00,WeatherDisplay:10.37,2013-05-07 01:49:00,
2013-05-06 21:54:00,64.3,51.0,29.90,South,177,0.0,0.0,62,0.00,SCT,,0.00,WeatherDisplay:10.37,2013-05-07 01:54:00,
2013-05-06 21:59:00,64.3,51.4,29.90,South,177,0.0,0.0,63,0.00,SCT,,0.00,WeatherDisplay:10.37,2013-05-07 01:59:00,
2013-05-06 22:04:00,64.2,51.3,29.90,South,177,0.0,0.0,63,0.00,BKN,,0.00,WeatherDisplay:10.37,2013-05-07 02:04:00,
2013-05-06 22:09:00,64.2,51.3,29.90,South,177,0.0,0.0,63,0.00,BKN,,0.00,WeatherDisplay:10.37,2013-05-07 02:09:00,
2013-05-06 22:14:00,64.2,51.3,29.91,South,177,0.0,0.0,63,0.00,BKN,,0.00,WeatherDisplay:10.37,2013-05-07 02:14:00,
2013-05-06 22:19:00,64.0,51.6,29.91,South,177,0.0,0.0,64,0.00,BKN,,0.00,WeatherDisplay:10.37,2013-05-07 02:19:00,
2013-05-06 22:24:00,64.0,51.6,29.91,South,177,0.0,0.0,64,0.00,BKN,,0.00,WeatherDisplay:10.37,2013-05-07 02:24:00,
2013-05-06 22:29:00,63.9,51.5,29.91,South,177,0.0,0.0,64,0.00,BKN,,0.00,WeatherDisplay:10.37,2013-05-07 02:29:00,
2013-05-06 22:34:00,63.7,51.3,29.91,South,177,0.0,0.0,64,0.00,BKN,,0.00,WeatherDisplay:10.37,2013-05-07 02:34:00,
2013-05-06 22:39:00,63.5,51.1,29.91,South,177,0.0,0.0,64,0.00,BKN,,0.00,WeatherDisplay:10.37,2013-05-07 02:39:00,
2013-05-06 22:44:00,63.4,50.6,29.92,South,177,0.0,0.0,63,0.00,BKN,,0.00,WeatherDisplay:10.37,2013-05-07 02:44:00,
2013-05-06 22:49:00,63.2,50.8,29.92,South,177,0.0,0.0,64,0.00,BKN,,0.00,WeatherDisplay:10.37,2013-05-07 02:49:00,
2013-05-06 22:54:00,63.1,50.7,29.92,South,177,0.0,0.0,64,0.00,BKN,,0.00,WeatherDisplay:10.37,2013-05-07 02:54:00,
2013-05-06 22:59:00,63.1,51.1,29.92,South,178,0.0,0.0,65,0.00,BKN,,0.00,WeatherDisplay:10.37,2013-05-07 02:59:00,
2013-05-06 23:04:00,62.7,50.8,29.92,South,178,0.0,0.0,65,0.00,FEW,,0.00,WeatherDisplay:10.37,2013-05-07 03:04:00,
2013-05-06 23:09:00,62.6,51.1,29.92,South,178,0.0,0.0,66,0.00,FEW,,0.00,WeatherDisplay:10.37,2013-05-07 03:09:00,
2013-05-06 23:14:00,62.4,51.3,29.92,South,178,0.0,0.0,67,0.00,FEW,,0.00,WeatherDisplay:10.37,2013-05-07 03:14:00,
2013-05-06 23:19:00,62.3,51.2,29.92,South,178,0.0,0.0,67,0.00,FEW,,0.00,WeatherDisplay:10.37,2013-05-07 03:19:00,
2013-05-06 23:24:00,62.1,51.0,29.92,South,178,0.0,0.0,67,0.00,FEW,,0.00,WeatherDisplay:10.37,2013-05-07 03:24:00,
2013-05-06 23:29:00,62.0,51.3,29.92,South,187,0.4,3.5,68,0.00,FEW,,0.00,WeatherDisplay:10.37,2013-05-07 03:29:00,
2013-05-06 23:34:00,61.8,51.1,29.92,South,187,0.0,0.0,68,0.00,FEW,,0.00,WeatherDisplay:10.37,2013-05-07 03:34:00,
2013-05-06 23:39:00,61.6,51.3,29.92,South,187,0.0,0.0,69,0.00,FEW,,0.00,WeatherDisplay:10.37,2013-05-07 03:39:00,
2013-05-06 23:44:00,61.5,51.6,29.92,South,187,0.0,0.0,70,0.00,FEW,,0.00,WeatherDisplay:10.37,2013-05-07 03:44:00,
2013-05-06 23:49:00,61.2,51.3,29.92,South,186,0.0,0.0,70,0.00,FEW,,0.00,WeatherDisplay:10.37,2013-05-07 03:49:00,
2013-05-06 23:54:00,61.0,51.1,29.92,South,186,0.0,0.0,70,0.00,FEW,,0.00,WeatherDisplay:10.37,2013-05-07 03:54:00,
2013-05-06 23:59:00,61.0,51.5,29.92,South,186,0.0,0.0,71,0.00,FEW,,0.00,WeatherDisplay:10.37,2013-05-07 03:59:00,